createdAt,value
2022-10-30T00:01:10.864Z,3.45
2022-10-30T00:06:13.495Z,3.03
2022-10-30T00:11:16.169Z,2.92
2022-10-30T00:16:18.836Z,3.08
2022-10-30T00:21:21.372Z,3.92
2022-10-30T00:26:25.652Z,3.30
2022-10-30T00:31:28.347Z,4.00
2022-10-30T00:36:31.609Z,3.42
2022-10-30T00:41:34.382Z,3.70
2022-10-30T00:46:41.036Z,4.03
2022-10-30T00:51:49.926Z,4.10
2022-10-30T00:56:54.330Z,3.97
2022-10-30T01:01:59.202Z,4.00
2022-10-30T01:07:09.797Z,5.18
2022-10-30T01:12:12.385Z,4.60
2022-10-30T01:17:43.451Z,4.70
2022-10-30T01:22:51.775Z,4.65
2022-10-30T01:27:54.582Z,5.07
2022-10-30T01:33:06.443Z,5.15
2022-10-30T01:38:15.465Z,5.05
2022-10-30T01:43:20.055Z,5.13
2022-10-30T01:49:08.861Z,5.10
2022-10-30T01:54:38.033Z,5.05
2022-10-30T01:59:50.329Z,4.32
2022-10-30T02:04:53.178Z,4.90
2022-10-30T02:09:56.669Z,4.32
2022-10-30T02:15:00.973Z,3.75
2022-10-30T02:20:04.413Z,3.75
2022-10-30T02:25:07.342Z,3.92
2022-10-30T02:30:10.850Z,2.90
2022-10-30T02:35:13.636Z,3.42
2022-10-30T02:40:16.908Z,2.75
2022-10-30T02:45:19.856Z,2.63
2022-10-30T02:50:23.121Z,2.92
2022-10-30T02:55:27.402Z,2.10
2022-10-30T03:00:30.273Z,2.65
2022-10-30T03:05:33.505Z,2.38
2022-10-30T03:10:36.119Z,2.75
2022-10-30T03:15:38.684Z,2.70
2022-10-30T03:20:41.664Z,2.85
2022-10-30T03:25:44.229Z,2.50
2022-10-30T03:30:47.371Z,2.63
2022-10-30T03:35:51.625Z,2.45
2022-10-30T03:40:54.555Z,1.98
2022-10-30T03:45:57.835Z,2.42
2022-10-30T03:51:00.757Z,2.40
2022-10-30T03:56:05.150Z,2.30
2022-10-30T04:01:18.796Z,2.00
2022-10-30T04:06:25.846Z,1.80
2022-10-30T04:11:28.585Z,2.03
2022-10-30T04:16:31.331Z,1.60
2022-10-30T04:21:35.905Z,1.63
2022-10-30T04:26:38.725Z,1.70
2022-10-30T04:31:41.511Z,1.63
2022-10-30T04:36:44.228Z,1.65
2022-10-30T04:41:47.914Z,1.30
2022-10-30T04:46:57.679Z,1.35
2022-10-30T04:52:00.382Z,1.45
2022-10-30T04:57:03.169Z,1.42
2022-10-30T05:02:06.528Z,1.60
2022-10-30T05:07:09.404Z,1.55
2022-10-30T05:12:12.002Z,1.70
2022-10-30T05:17:25.748Z,1.88
2022-10-30T05:22:28.323Z,1.75
2022-10-30T05:27:31.327Z,1.45
2022-10-30T05:32:33.986Z,1.40
2022-10-30T05:37:37.618Z,1.30
2022-10-30T05:42:48.522Z,1.05
2022-10-30T05:48:02.684Z,1.70
2022-10-30T05:53:10.435Z,1.15
2022-10-30T05:58:14.952Z,1.30
2022-10-30T06:03:19.946Z,1.30
2022-10-30T06:08:22.675Z,0.70
2022-10-30T06:13:28.933Z,0.70
2022-10-30T06:18:42.582Z,0.80
2022-10-30T06:23:48.893Z,0.90
2022-10-30T06:29:08.314Z,0.50
2022-10-30T06:34:11.194Z,0.50
2022-10-30T06:39:16.797Z,0.30
2022-10-30T06:44:43.982Z,0.45
2022-10-30T06:49:46.636Z,0.55
2022-10-30T06:54:49.299Z,0.80
2022-10-30T07:00:11.528Z,0.50
2022-10-30T07:05:40.566Z,0.40
2022-10-30T07:10:43.531Z,0.45
2022-10-30T07:16:00.529Z,0.43
2022-10-30T07:21:10.353Z,0.55
2022-10-30T07:26:13.375Z,0.50
2022-10-30T07:31:34.848Z,0.40
2022-10-30T07:37:07.080Z,0.50
2022-10-30T07:42:24.678Z,0.40
2022-10-30T07:48:03.547Z,0.50
2022-10-30T07:53:16.794Z,1.17
2022-10-30T07:58:21.820Z,0.52
2022-10-30T08:03:46.587Z,0.68
2022-10-30T08:09:07.130Z,1.38
2022-10-30T08:14:09.771Z,0.70
2022-10-30T08:19:12.750Z,0.90
2022-10-30T08:24:17.759Z,0.68
2022-10-30T08:29:23.070Z,0.60
2022-10-30T08:34:31.793Z,0.60
2022-10-30T08:39:39.358Z,0.60
2022-10-30T08:45:10.157Z,0.52
2022-10-30T08:50:37.296Z,0.60
2022-10-30T08:55:41.725Z,0.82
2022-10-30T09:01:01.575Z,0.85
2022-10-30T09:06:24.618Z,1.00
2022-10-30T09:11:49.155Z,1.00
2022-10-30T09:16:52.364Z,0.65
2022-10-30T09:21:56.932Z,1.20
2022-10-30T09:26:59.604Z,3.55
2022-10-30T09:32:08.664Z,1.75
2022-10-30T09:37:19.216Z,1.48
2022-10-30T09:42:45.891Z,0.70
2022-10-30T09:48:26.900Z,0.70
2022-10-30T09:53:52.523Z,1.02
2022-10-30T09:59:40.763Z,0.70
2022-10-30T10:04:51.827Z,0.50
2022-10-30T10:10:58.319Z,0.70
2022-10-30T10:16:23.109Z,0.60
2022-10-30T10:21:28.563Z,0.43
2022-10-30T10:26:52.429Z,0.70
2022-10-30T10:32:29.120Z,0.40
2022-10-30T10:37:43.065Z,1.15
2022-10-30T10:42:51.373Z,0.60
2022-10-30T10:53:46.515Z,0.40
2022-10-30T10:58:56.840Z,0.70
2022-10-30T11:04:29.980Z,0.60
2022-10-30T11:09:32.600Z,1.95
2022-10-30T11:14:35.611Z,1.52
2022-10-30T11:19:38.223Z,0.77
2022-10-30T11:24:40.872Z,0.70
2022-10-30T11:29:52.379Z,0.47
2022-10-30T11:35:10.183Z,0.60
2022-10-30T11:40:12.655Z,0.80
2022-10-30T11:45:24.854Z,0.90
2022-10-30T11:50:32.680Z,0.70
2022-10-30T11:55:41.572Z,0.60
2022-10-30T12:00:45.429Z,0.70
2022-10-30T12:05:50.356Z,0.50
2022-10-30T12:10:53.254Z,0.55
2022-10-30T12:16:14.771Z,0.60
2022-10-30T12:21:20.300Z,0.68
2022-10-30T12:26:24.237Z,0.60
2022-10-30T12:31:36.376Z,0.70
2022-10-30T12:36:50.751Z,0.32
2022-10-30T12:42:06.083Z,0.60
2022-10-30T12:47:39.251Z,0.60
2022-10-30T12:53:16.707Z,0.60
2022-10-30T12:58:33.638Z,0.93
2022-10-30T13:03:43.001Z,0.38
2022-10-30T13:08:55.172Z,0.50
2022-10-30T13:14:00.532Z,0.93
2022-10-30T13:19:03.863Z,0.57
2022-10-30T13:24:35.845Z,0.40
2022-10-30T13:29:49.730Z,0.40
2022-10-30T13:35:02.253Z,0.30
2022-10-30T13:40:15.269Z,0.50
2022-10-30T13:45:47.338Z,0.80
2022-10-30T13:51:25.597Z,0.43
2022-10-30T13:56:29.005Z,1.20
2022-10-30T14:02:12.606Z,0.50
2022-10-30T14:07:30.900Z,0.45
2022-10-30T14:12:52.459Z,0.50
2022-10-30T14:18:24.699Z,0.45
2022-10-30T14:23:38.068Z,0.52
2022-10-30T14:28:45.310Z,0.38
2022-10-30T14:33:54.503Z,0.57
2022-10-30T14:39:09.372Z,0.50
2022-10-30T14:44:21.484Z,0.40
2022-10-30T14:55:02.512Z,0.57
2022-10-30T15:00:44.009Z,0.70
2022-10-30T15:06:06.412Z,0.40
2022-10-30T15:11:37.157Z,0.60
2022-10-30T15:16:41.452Z,0.88
2022-10-30T15:21:57.045Z,1.10
2022-10-30T15:27:02.469Z,1.15
2022-10-30T15:32:18.255Z,0.60
2022-10-30T15:37:21.098Z,0.52
2022-10-30T15:42:23.783Z,0.50
2022-10-30T15:47:26.402Z,0.50
2022-10-30T15:52:32.654Z,0.55
2022-10-30T16:03:13.755Z,0.70
2022-10-30T16:08:21.835Z,0.80
2022-10-30T16:13:30.065Z,0.80
2022-10-30T16:18:36.004Z,0.80
2022-10-30T16:23:41.779Z,0.80
2022-10-30T16:28:47.831Z,0.55
2022-10-30T16:33:51.065Z,0.70
2022-10-30T16:38:55.192Z,0.77
2022-10-30T16:44:13.103Z,0.50
2022-10-30T16:49:19.443Z,0.60
2022-10-30T16:54:27.499Z,0.77
2022-10-30T16:59:39.077Z,0.70
2022-10-30T17:04:46.440Z,0.95
2022-10-30T17:09:50.442Z,0.70
2022-10-30T17:14:56.404Z,0.70
2022-10-30T17:20:28.107Z,0.90
2022-10-30T17:25:38.863Z,0.70
2022-10-30T17:30:43.063Z,0.70
2022-10-30T17:35:45.605Z,0.55
2022-10-30T17:40:48.528Z,0.50
2022-10-30T17:45:51.567Z,0.50
2022-10-30T17:50:54.958Z,0.77
2022-10-30T17:56:18.327Z,1.05
2022-10-30T18:01:24.533Z,0.50
2022-10-30T18:06:28.938Z,0.55
2022-10-30T18:11:31.641Z,0.70
2022-10-30T18:16:34.451Z,0.60
2022-10-30T18:21:37.729Z,0.73
2022-10-30T18:26:41.215Z,0.80
2022-10-30T18:31:44.440Z,0.60
2022-10-30T18:36:49.559Z,0.45
2022-10-30T18:41:55.438Z,0.47
2022-10-30T18:47:02.702Z,0.45
2022-10-30T18:52:06.002Z,0.50
2022-10-30T18:57:08.819Z,0.40
2022-10-30T19:02:24.363Z,0.50
2022-10-30T19:07:29.899Z,0.60
2022-10-30T19:12:35.629Z,0.40
2022-10-30T19:17:41.212Z,0.40
2022-10-30T19:22:43.792Z,0.70
2022-10-30T19:27:46.964Z,0.60
2022-10-30T19:32:50.017Z,0.68
2022-10-30T19:37:54.059Z,0.65
2022-10-30T19:42:56.849Z,0.30
2022-10-30T19:48:11.561Z,0.77
2022-10-30T19:53:14.893Z,0.73
2022-10-30T19:58:20.841Z,0.60
2022-10-30T20:03:27.704Z,0.50
2022-10-30T20:08:30.781Z,0.50
2022-10-30T20:13:33.805Z,0.40
2022-10-30T20:18:37.436Z,0.68
2022-10-30T20:23:40.148Z,0.32
2022-10-30T20:28:44.882Z,0.40
2022-10-30T20:33:49.684Z,0.52
2022-10-30T20:38:55.560Z,0.77
2022-10-30T20:43:58.420Z,0.50
2022-10-30T20:49:12.155Z,0.47
2022-10-30T20:54:21.984Z,0.40
2022-10-30T20:59:24.710Z,0.40
2022-10-30T21:04:27.264Z,0.40
2022-10-30T21:09:30.053Z,0.50
2022-10-30T21:14:33.057Z,0.95
2022-10-30T21:19:36.263Z,0.70
2022-10-30T21:24:38.844Z,0.45
2022-10-30T21:29:41.834Z,0.32
2022-10-30T21:34:44.609Z,0.70
2022-10-30T21:39:47.252Z,0.40
2022-10-30T21:44:49.758Z,0.30
2022-10-30T21:49:52.349Z,0.50
2022-10-30T21:54:54.922Z,0.40
2022-10-30T21:59:59.992Z,0.55
2022-10-30T22:05:07.463Z,0.68
2022-10-30T22:10:10.183Z,0.50
2022-10-30T22:15:12.727Z,0.40
2022-10-30T22:20:15.787Z,0.65
2022-10-30T22:25:18.507Z,0.57
2022-10-30T22:30:21.055Z,0.40
2022-10-30T22:35:23.814Z,0.40
2022-10-30T22:40:26.362Z,0.43
2022-10-30T22:45:29.395Z,0.60
2022-10-30T22:50:32.069Z,0.20
2022-10-30T22:55:34.659Z,0.68
2022-10-30T23:00:37.278Z,0.50
2022-10-30T23:05:40.076Z,0.35
2022-10-30T23:10:42.625Z,0.45
2022-10-30T23:15:45.183Z,0.47
2022-10-30T23:20:48.505Z,0.40
2022-10-30T23:25:51.176Z,0.60
2022-10-30T23:30:53.738Z,0.50
2022-10-30T23:36:03.724Z,0.50
2022-10-30T23:41:06.198Z,0.50
2022-10-30T23:46:09.056Z,0.20
2022-10-30T23:51:11.660Z,0.47
2022-10-30T23:56:14.543Z,0.25
